Time;durP1;ratioP1;P1;durP2;ratioP2;P2;SDS_P1;SDS_P2;PMS_P1;PMS_P2;Temp;Humidity;BMP_temperature;BMP_pressure;BME280_temperature;BME280_humidity;BME280_pressure;Samples;Min_cycle;Max_cycle;Signal;HPM_P1;HPM_P2
2022/09/19 00:01:57;;;;;;;2.17;0.80;;;;;;;18.16;58.08;100454.69;5031566;28;20683;-66
2022/09/19 00:04:27;;;;;;;2.20;0.90;;;;;;;18.17;58.27;100460.00;4981302;28;20536;-66
2022/09/19 00:06:53;;;;;;;1.87;0.90;;;;;;;18.16;58.36;100461.19;4997974;28;20243;-66
2022/09/19 00:09:20;;;;;;;2.63;0.90;;;;;;;18.16;58.48;100464.06;5033994;28;20537;-66
2022/09/19 00:11:47;;;;;;;1.50;0.80;;;;;;;18.16;58.49;100471.81;5015135;28;20460;-66
2022/09/19 00:14:14;;;;;;;1.30;0.70;;;;;;;18.16;58.45;100475.50;5017265;28;20485;-66
2022/09/19 00:16:41;;;;;;;1.40;0.70;;;;;;;18.17;58.63;100479.19;5033928;28;20402;-66
2022/09/19 00:19:08;;;;;;;1.67;0.83;;;;;;;18.17;58.57;100476.31;5021588;28;20419;-66
2022/09/19 00:21:35;;;;;;;2.20;0.90;;;;;;;18.16;58.52;100474.69;5050450;28;20909;-66
2022/09/19 00:26:45;;;;;;;1.87;0.77;;;;;;;18.14;58.72;100477.91;5056070;28;20764;-66
2022/09/19 00:29:11;;;;;;;2.33;0.70;;;;;;;18.15;58.52;100473.00;5053136;28;20556;-66
2022/09/19 00:31:36;;;;;;;2.90;0.77;;;;;;;18.15;58.71;100479.56;5036760;28;20171;-66
2022/09/19 00:34:06;;;;;;;1.97;0.70;;;;;;;18.14;58.72;100475.03;5071010;28;20783;-66
2022/09/19 00:36:33;;;;;;;1.40;0.70;;;;;;;18.14;58.80;100480.75;5023188;28;20589;-66
2022/09/19 00:38:59;;;;;;;1.57;0.77;;;;;;;18.14;58.81;100480.75;5031118;28;20407;-66
2022/09/19 00:41:25;;;;;;;1.70;0.83;;;;;;;18.14;58.87;100480.75;5028442;28;20461;-66
2022/09/19 00:43:56;;;;;;;1.90;0.80;;;;;;;18.13;58.97;100479.13;5016923;28;20402;-66
2022/09/19 00:46:23;;;;;;;1.43;0.70;;;;;;;18.14;58.65;100480.75;5033248;28;20476;-66
2022/09/19 00:49:04;;;;;;;1.50;0.80;;;;;;;18.14;58.78;100486.47;5016722;28;20481;-66
2022/09/19 00:51:35;;;;;;;1.77;0.73;;;;;;;18.14;58.79;100489.34;5031992;28;20401;-66
2022/09/19 00:54:07;;;;;;;1.37;0.67;;;;;;;18.14;58.83;100486.47;5014995;28;20441;-66
2022/09/19 00:56:32;;;;;;;1.60;0.77;;;;;;;18.14;58.84;100480.75;5031047;28;20769;-66
2022/09/19 00:58:58;;;;;;;2.17;0.80;;;;;;;18.14;58.96;100488.50;5014352;28;20403;-66
2022/09/19 01:01:24;;;;;;;1.60;0.80;;;;;;;18.14;59.07;100491.34;5015903;28;20663;-66
2022/09/19 01:03:52;;;;;;;1.40;0.80;;;;;;;18.13;58.84;100490.53;5029317;28;20671;-66
2022/09/19 01:06:35;;;;;;;2.73;1.00;;;;;;;18.13;59.24;100495.41;5013376;28;20962;-66
2022/09/19 01:09:38;;;;;;;2.07;0.80;;;;;;;18.15;58.73;100498.72;5029165;28;20462;-66
2022/09/19 01:12:37;;;;;;;1.47;0.70;;;;;;;18.14;59.23;100508.50;5007671;28;20431;-66
2022/09/19 01:15:33;;;;;;;1.37;0.70;;;;;;;18.14;58.96;100508.50;5014467;28;20426;-66
2022/09/19 01:18:01;;;;;;;1.60;0.80;;;;;;;18.14;58.68;100506.47;5012932;28;20453;-66
2022/09/19 01:20:36;;;;;;;1.57;0.80;;;;;;;18.14;58.81;100517.06;5012803;28;20411;-66
2022/09/19 01:23:15;;;;;;;1.37;0.60;;;;;;;18.14;59.12;100520.75;5030337;28;20458;-66
2022/09/19 01:26:06;;;;;;;1.20;0.60;;;;;;;18.13;59.22;100519.13;5030718;28;20419;-66
2022/09/19 01:28:43;;;;;;;1.47;0.80;;;;;;;18.13;59.21;100521.13;5030261;28;21008;-66
2022/09/19 01:31:17;;;;;;;1.50;0.70;;;;;;;18.13;59.13;100519.13;5030051;28;20447;-66
2022/09/19 01:33:47;;;;;;;2.00;0.90;;;;;;;18.12;59.15;100520.28;5012235;28;20466;-66
2022/09/19 01:36:14;;;;;;;1.90;0.63;;;;;;;18.13;58.98;100527.69;5028359;28;20542;-66
2022/09/19 01:38:41;;;;;;;1.50;0.70;;;;;;;18.11;59.16;100521.50;5012401;28;20415;-66
2022/09/19 01:41:08;;;;;;;1.37;0.63;;;;;;;18.13;59.19;100532.56;5040627;28;20479;-66
2022/09/19 01:43:33;;;;;;;2.10;0.83;;;;;;;18.12;59.14;100526.00;5032343;28;20791;-66
2022/09/19 01:46:02;;;;;;;1.60;0.70;;;;;;;18.12;59.42;100540.28;5049984;28;20419;-66
2022/09/19 01:48:33;;;;;;;1.83;0.70;;;;;;;18.12;59.32;100545.19;5048262;28;20245;-66
2022/09/19 01:51:17;;;;;;;1.60;0.80;;;;;;;18.12;59.48;100537.44;5048391;28;20421;-66
2022/09/19 01:54:15;;;;;;;1.60;0.80;;;;;;;18.13;59.21;100544.00;5050023;28;20440;-66
2022/09/19 01:56:56;;;;;;;1.70;0.73;;;;;;;18.11;58.99;100538.63;5049410;28;20533;-66
2022/09/19 01:59:37;;;;;;;1.80;0.90;;;;;;;18.12;59.23;100539.47;5032834;28;20427;-66
2022/09/19 02:02:28;;;;;;;1.37;0.70;;;;;;;18.11;59.10;100540.69;5049636;28;20808;-66
2022/09/19 02:05:15;;;;;;;1.80;0.70;;;;;;;18.10;59.15;100539.84;5007315;28;20476;-66
2022/09/19 02:07:49;;;;;;;2.37;0.70;;;;;;;18.11;59.49;100538.63;4995208;28;20459;-66
2022/09/19 02:10:21;;;;;;;1.43;0.67;;;;;;;18.11;59.14;100544.34;5036871;28;20786;-66
2022/09/19 02:12:50;;;;;;;1.43;0.70;;;;;;;18.11;59.40;100550.06;5031633;28;20410;-66
2022/09/19 02:15:15;;;;;;;1.70;0.83;;;;;;;18.12;59.40;100545.19;5031586;28;20504;-66
2022/09/19 02:17:48;;;;;;;1.50;0.70;;;;;;;18.12;59.07;100550.91;5049454;28;20411;-66
2022/09/19 02:20:18;;;;;;;1.40;0.80;;;;;;;18.11;59.47;100546.41;5032435;28;20211;-66
2022/09/19 02:22:52;;;;;;;1.80;0.90;;;;;;;18.10;59.38;100557.00;5049735;28;20455;-66
2022/09/19 02:25:20;;;;;;;1.40;0.70;;;;;;;18.11;59.16;100554.97;5069288;28;20459;-66
2022/09/19 02:27:50;;;;;;;1.40;0.67;;;;;;;18.10;59.41;100559.84;5030226;28;20464;-66
2022/09/19 02:30:16;;;;;;;1.40;0.73;;;;;;;18.10;59.49;100561.88;5064720;28;20414;-66
2022/09/19 02:32:47;;;;;;;1.47;0.77;;;;;;;18.10;59.48;100565.56;5030347;28;20482;-66
2022/09/19 02:35:14;;;;;;;1.50;0.70;;;;;;;18.09;59.20;100558.19;5064752;28;20702;-66
2022/09/19 02:37:48;;;;;;;1.90;0.90;;;;;;;18.09;59.49;100563.91;5030307;28;21081;-66
2022/09/19 02:40:14;;;;;;;1.50;0.80;;;;;;;18.09;59.22;100566.75;5008672;28;20925;-66
2022/09/19 02:43:02;;;;;;;2.50;0.70;;;;;;;18.10;59.52;100568.41;5046339;28;20425;-66
2022/09/19 02:45:32;;;;;;;1.47;0.70;;;;;;;18.09;59.85;100563.06;5031028;28;20258;-66
2022/09/19 02:48:05;;;;;;;1.20;0.60;;;;;;;18.10;59.37;100561.88;5031526;28;20501;-66
2022/09/19 02:50:52;;;;;;;2.10;0.80;;;;;;;18.09;59.21;100563.91;5030971;28;20411;-66
2022/09/19 02:53:19;;;;;;;1.43;0.67;;;;;;;18.08;59.60;100562.25;5033486;28;20514;-66
2022/09/19 02:55:55;;;;;;;1.57;0.70;;;;;;;18.09;59.45;100569.63;5014966;28;20903;-66
2022/09/19 02:58:21;;;;;;;1.70;0.70;;;;;;;18.09;59.62;100568.78;5031668;28;20430;-66
2022/09/19 03:00:51;;;;;;;1.50;0.70;;;;;;;18.09;59.36;100577.34;5014859;28;20744;-66
2022/09/19 03:06:06;;;;;;;1.40;0.70;;;;;;;18.08;59.44;100570.81;5020344;28;20841;-66
2022/09/19 03:08:35;;;;;;;1.30;0.70;;;;;;;18.08;59.35;100567.13;5030917;28;20462;-66
2022/09/19 03:11:00;;;;;;;2.10;0.83;;;;;;;18.08;59.66;100572.84;5015052;28;20628;-66
2022/09/19 03:13:26;;;;;;;1.63;0.70;;;;;;;18.07;59.41;100580.56;5014722;28;20409;-66
2022/09/19 03:16:01;;;;;;;1.40;0.70;;;;;;;18.08;59.39;100579.41;5030669;28;20176;-66
2022/09/19 03:18:27;;;;;;;1.30;0.60;;;;;;;18.07;59.58;100571.19;5014847;28;20548;-66
2022/09/19 03:20:54;;;;;;;1.40;0.60;;;;;;;18.06;59.52;100576.06;5014455;28;20904;-66
2022/09/19 03:23:23;;;;;;;1.40;0.70;;;;;;;18.08;59.46;100585.13;5018366;28;20269;-66
2022/09/19 03:25:48;;;;;;;1.40;0.57;;;;;;;18.07;59.64;100583.44;5018732;28;20421;-66
2022/09/19 03:28:19;;;;;;;1.40;0.70;;;;;;;18.07;59.46;100583.44;5034384;28;20462;-66
2022/09/19 03:30:47;;;;;;;1.30;0.70;;;;;;;18.06;59.42;100587.50;5035204;28;20531;-66
2022/09/19 03:33:15;;;;;;;1.53;0.73;;;;;;;18.07;59.73;100588.34;5034164;28;20427;-66
2022/09/19 03:35:41;;;;;;;4.70;0.60;;;;;;;18.06;59.44;100587.50;5051785;28;20509;-66
2022/09/19 03:38:07;;;;;;;1.60;0.97;;;;;;;18.05;59.48;100580.13;5051002;28;20414;-66
2022/09/19 03:40:33;;;;;;;1.70;0.80;;;;;;;18.06;59.33;100587.50;5046378;28;20845;-66
2022/09/19 03:42:59;;;;;;;1.90;0.67;;;;;;;18.06;59.53;100587.50;5034534;28;20184;-66
2022/09/19 03:45:24;;;;;;;1.37;0.67;;;;;;;18.06;59.65;100587.50;5017583;28;20429;-66
2022/09/19 03:47:50;;;;;;;2.20;0.80;;;;;;;18.06;59.75;100589.53;5050683;28;20260;-66
2022/09/19 03:50:16;;;;;;;1.30;0.60;;;;;;;18.06;59.41;100589.53;5032960;28;20553;-66
2022/09/19 03:52:41;;;;;;;1.60;0.90;;;;;;;18.05;59.61;100588.69;5050637;28;20270;-66
2022/09/19 03:55:07;;;;;;;1.37;0.60;;;;;;;18.05;59.44;100591.56;5050495;28;20373;-66
2022/09/19 03:57:32;;;;;;;2.53;1.10;;;;;;;18.06;59.73;100598.13;5032841;28;20236;-66
2022/09/19 03:59:58;;;;;;;1.50;0.70;;;;;;;18.05;59.40;100608.69;5050773;28;20551;-66
2022/09/19 04:02:23;;;;;;;1.33;0.60;;;;;;;18.05;59.44;100614.41;5051140;28;20192;-66
2022/09/19 04:04:49;;;;;;;1.70;0.83;;;;;;;18.05;59.34;100619.28;5017267;28;20539;-66
2022/09/19 04:07:15;;;;;;;2.43;0.57;;;;;;;18.05;59.55;100620.13;5033270;28;20195;-66
2022/09/19 04:09:41;;;;;;;1.20;0.50;;;;;;;18.05;59.85;100620.13;5028080;28;20603;-66
2022/09/19 04:12:06;;;;;;;1.50;0.70;;;;;;;18.04;59.84;100618.47;5050328;28;20536;-66
2022/09/19 04:14:33;;;;;;;1.70;0.57;;;;;;;18.04;59.73;100615.63;5032153;28;20186;-66
2022/09/19 04:16:59;;;;;;;1.57;0.80;;;;;;;18.04;59.81;100626.22;5049239;28;20205;-66
2022/09/19 04:19:26;;;;;;;1.70;0.73;;;;;;;18.04;59.43;100623.34;5049591;28;20446;-66
2022/09/19 04:21:52;;;;;;;1.80;0.60;;;;;;;18.04;59.43;100627.03;5049129;28;20422;-66
2022/09/19 04:24:19;;;;;;;1.70;0.80;;;;;;;18.04;59.47;100624.19;5017187;28;20486;-66
2022/09/19 04:26:45;;;;;;;1.60;0.70;;;;;;;18.03;59.63;100628.25;5051419;28;20497;-66
2022/09/19 04:29:10;;;;;;;1.30;0.70;;;;;;;18.02;59.47;100632.28;5050402;28;20480;-66
2022/09/19 04:31:39;;;;;;;1.30;0.63;;;;;;;18.04;59.86;100637.63;5051328;28;20217;-66
2022/09/19 04:34:14;;;;;;;1.43;0.70;;;;;;;18.03;59.80;100633.13;5033081;28;20683;-66
2022/09/19 04:36:40;;;;;;;1.57;0.60;;;;;;;18.03;59.46;100644.56;5051265;28;20414;-66
2022/09/19 04:39:06;;;;;;;1.40;0.70;;;;;;;18.03;59.74;100648.25;5050526;28;20517;-66
2022/09/19 04:41:33;;;;;;;1.73;0.73;;;;;;;18.03;59.89;100653.13;5050934;28;20485;-66
2022/09/19 04:43:59;;;;;;;1.73;0.70;;;;;;;18.03;59.70;100651.09;5050758;28;20441;-66
2022/09/19 04:46:24;;;;;;;1.53;0.80;;;;;;;18.03;59.56;100661.69;5014532;28;20535;-66
2022/09/19 04:48:51;;;;;;;1.50;0.70;;;;;;;18.03;59.77;100655.97;5047933;28;20219;-66
2022/09/19 04:51:17;;;;;;;1.60;0.70;;;;;;;18.02;60.44;100651.47;5049027;28;20176;-66
2022/09/19 04:53:42;;;;;;;1.30;0.50;;;;;;;18.00;59.82;100657.53;5048825;28;20422;-66
2022/09/19 04:56:08;;;;;;;1.23;0.57;;;;;;;18.02;59.84;100657.19;5030814;28;20180;-66
2022/09/19 04:58:33;;;;;;;1.33;0.60;;;;;;;18.01;60.03;100664.09;5048617;28;20175;-66
2022/09/19 05:00:59;;;;;;;1.73;0.70;;;;;;;18.02;59.78;100660.84;5049044;28;20195;-66
2022/09/19 05:03:27;;;;;;;1.50;0.73;;;;;;;18.02;59.82;100668.59;5031915;28;20520;-66
2022/09/19 05:05:53;;;;;;;1.30;0.60;;;;;;;18.01;59.59;100667.78;5032958;28;20635;-66
2022/09/19 05:08:24;;;;;;;2.30;0.73;;;;;;;18.01;59.93;100679.19;5016232;28;20553;-66
2022/09/19 05:10:51;;;;;;;1.97;0.80;;;;;;;18.02;60.02;100685.75;5033284;28;20187;-66
2022/09/19 05:13:17;;;;;;;1.60;0.53;;;;;;;18.02;59.91;100683.69;5032212;28;20477;-66
2022/09/19 05:15:44;;;;;;;1.60;0.70;;;;;;;18.01;60.03;100682.06;5050124;28;20507;-66
2022/09/19 05:18:12;;;;;;;1.50;0.70;;;;;;;18.00;60.18;100686.13;5032058;28;20517;-66
2022/09/19 05:20:38;;;;;;;1.50;0.70;;;;;;;18.00;59.96;100691.81;5050352;28;20926;-66
2022/09/19 05:23:03;;;;;;;1.50;0.80;;;;;;;18.01;60.17;100695.53;5015400;28;20462;-66
2022/09/19 05:25:30;;;;;;;1.87;0.70;;;;;;;17.99;59.79;100701.59;5032202;28;20171;-66
2022/09/19 05:27:56;;;;;;;1.40;0.70;;;;;;;17.99;60.12;100695.88;5049801;28;20340;-66
2022/09/19 05:30:24;;;;;;;4.40;0.60;;;;;;;17.99;60.02;100693.03;5031909;28;20982;-66
2022/09/19 05:32:50;;;;;;;1.40;0.70;;;;;;;18.00;59.79;100696.69;5032247;28;20695;-66
2022/09/19 05:35:16;;;;;;;1.70;0.80;;;;;;;17.99;60.21;100695.88;5049841;28;20549;-66
2022/09/19 05:37:42;;;;;;;1.40;0.63;;;;;;;17.99;60.22;100704.47;5049629;28;20414;-66
2022/09/19 05:40:10;;;;;;;1.60;0.80;;;;;;;18.00;59.90;100708.97;5031896;28;20179;-66
2022/09/19 05:42:41;;;;;;;1.80;0.70;;;;;;;17.98;59.98;100705.66;5035111;28;20171;-66
2022/09/19 05:45:07;;;;;;;1.20;0.60;;;;;;;17.98;60.03;100705.66;5050217;28;20959;-66
2022/09/19 05:47:33;;;;;;;1.50;0.70;;;;;;;18.00;60.10;100705.28;5048309;28;20497;-66
2022/09/19 05:49:58;;;;;;;1.60;0.80;;;;;;;17.98;60.19;100705.66;5049388;28;20433;-66
2022/09/19 05:55:08;;;;;;;1.67;0.70;;;;;;;18.00;59.79;100713.84;5048451;28;20275;-66
2022/09/19 05:57:34;;;;;;;1.90;0.80;;;;;;;17.99;59.97;100727.31;5038815;28;20422;-66
2022/09/19 05:59:59;;;;;;;1.90;0.77;;;;;;;17.99;60.13;100718.75;5047565;28;20206;-66
2022/09/19 06:02:25;;;;;;;1.67;0.70;;;;;;;17.98;60.06;100722.81;5029539;28;20222;-66
2022/09/19 06:04:50;;;;;;;1.90;0.80;;;;;;;17.99;59.86;100730.16;5029771;28;20164;-66
2022/09/19 06:07:16;;;;;;;1.50;0.73;;;;;;;17.99;59.83;100729.31;5047297;28;20512;-66
2022/09/19 06:09:42;;;;;;;1.77;0.83;;;;;;;17.99;60.16;100729.31;5047376;28;20172;-66
2022/09/19 06:12:07;;;;;;;1.70;0.80;;;;;;;17.97;60.06;100729.69;5044594;28;20604;-66
2022/09/19 06:14:35;;;;;;;1.60;0.80;;;;;;;17.99;59.95;100735.03;5035631;28;20495;-66
2022/09/19 06:17:00;;;;;;;2.87;1.00;;;;;;;17.98;59.90;100737.09;5048319;28;20622;-66
2022/09/19 06:19:26;;;;;;;1.47;0.80;;;;;;;17.97;60.25;100738.25;5048114;28;20446;-66
2022/09/19 06:21:51;;;;;;;2.20;0.60;;;;;;;17.98;60.06;100744.81;5049342;28;20539;-66
2022/09/19 06:24:16;;;;;;;1.60;0.60;;;;;;;17.98;60.21;100747.66;5047774;28;20630;-66
2022/09/19 06:26:42;;;;;;;1.60;0.80;;;;;;;17.96;60.09;100750.88;5049164;28;20171;-66
2022/09/19 06:29:07;;;;;;;1.40;0.60;;;;;;;17.97;60.14;100749.69;5047311;28;20281;-66
2022/09/19 06:31:35;;;;;;;1.70;0.70;;;;;;;17.97;60.10;100755.41;5048071;28;20204;-66
2022/09/19 06:34:00;;;;;;;1.40;0.70;;;;;;;17.96;60.05;100753.75;5047742;28;20184;-66
2022/09/19 06:36:26;;;;;;;1.43;0.80;;;;;;;17.97;60.01;100760.31;5047874;28;20550;-66
2022/09/19 06:38:51;;;;;;;1.30;0.67;;;;;;;17.96;60.21;100753.75;5049186;28;20643;-66
2022/09/19 06:41:17;;;;;;;3.37;0.70;;;;;;;17.96;59.89;100758.66;5037210;28;20400;-66
2022/09/19 06:43:43;;;;;;;1.30;0.67;;;;;;;17.95;60.10;100757.81;5031224;28;20160;-66
2022/09/19 06:46:10;;;;;;;1.30;0.53;;;;;;;17.98;60.31;100761.94;5031401;28;20605;-66
2022/09/19 06:48:35;;;;;;;1.30;0.57;;;;;;;17.96;60.16;100758.66;5031074;28;20454;-66
2022/09/19 06:51:02;;;;;;;1.40;0.80;;;;;;;17.95;60.14;100757.81;5030996;28;20423;-66
2022/09/19 06:53:27;;;;;;;1.33;0.50;;;;;;;17.95;60.38;100757.81;5031507;28;20243;-66
2022/09/19 06:55:52;;;;;;;1.60;0.60;;;;;;;17.96;59.96;100762.31;5044701;28;20425;-66
2022/09/19 06:58:19;;;;;;;1.90;0.80;;;;;;;17.96;59.99;100758.66;5018388;28;20172;-66
2022/09/19 07:00:44;;;;;;;1.40;0.70;;;;;;;17.95;59.99;100772.09;5018870;28;20237;-66
2022/09/19 07:03:12;;;;;;;1.60;0.80;;;;;;;17.95;60.08;100777.81;5052957;28;20421;-66
2022/09/19 07:05:39;;;;;;;1.30;0.60;;;;;;;17.95;60.01;100774.94;5034633;28;20176;-66
2022/09/19 07:08:05;;;;;;;1.43;0.70;;;;;;;17.96;60.24;100787.22;5018607;28;20512;-66
2022/09/19 07:10:30;;;;;;;1.60;0.77;;;;;;;17.94;60.07;100779.00;5035126;28;20525;-66
2022/09/19 07:13:01;;;;;;;1.50;0.80;;;;;;;17.94;60.03;100779.00;5035091;28;20651;-66
2022/09/19 07:15:26;;;;;;;1.40;0.60;;;;;;;17.95;59.73;100786.38;5035179;28;20194;-66
2022/09/19 07:17:55;;;;;;;1.97;0.80;;;;;;;17.95;60.17;100785.53;5034766;28;20411;-66
2022/09/19 07:20:21;;;;;;;1.70;0.93;;;;;;;17.93;59.90;100788.78;5034559;28;20707;-66
2022/09/19 07:22:59;;;;;;;1.70;0.70;;;;;;;17.93;60.43;100777.34;5034459;28;20410;-66
2022/09/19 07:25:25;;;;;;;1.30;0.60;;;;;;;17.95;60.27;100788.38;5019801;28;20764;-66
2022/09/19 07:27:57;;;;;;;1.60;0.73;;;;;;;17.95;60.20;100788.38;5052405;28;20456;-66
2022/09/19 07:30:23;;;;;;;1.60;0.60;;;;;;;17.96;60.15;100795.78;5052215;28;20164;-66
2022/09/19 07:32:48;;;;;;;1.60;0.83;;;;;;;17.95;59.99;100792.09;5017879;28;20434;-66
2022/09/19 07:35:14;;;;;;;2.03;0.70;;;;;;;17.92;60.20;100798.53;5034731;28;20175;-66
2022/09/19 07:37:39;;;;;;;1.30;0.70;;;;;;;17.95;59.76;100797.78;5052159;28;20156;-66
2022/09/19 07:40:05;;;;;;;1.40;0.70;;;;;;;17.94;60.23;100799.00;5052248;28;20544;-66
2022/09/19 07:42:31;;;;;;;1.40;0.80;;;;;;;17.94;59.87;100801.84;5034422;28;20199;-66
2022/09/19 07:44:56;;;;;;;1.40;0.67;;;;;;;17.94;60.08;100807.56;5017889;28;20180;-66
2022/09/19 07:47:28;;;;;;;1.40;0.60;;;;;;;17.93;60.02;100811.63;5052335;28;20175;-66
2022/09/19 07:49:56;;;;;;;1.50;0.70;;;;;;;17.93;59.93;100805.91;5019729;28;20233;-66
2022/09/19 07:52:22;;;;;;;1.50;0.70;;;;;;;17.95;59.91;100814.09;5052352;28;20473;-66
2022/09/19 07:54:49;;;;;;;1.60;0.80;;;;;;;17.94;60.00;100819.00;5034681;28;20415;-66
2022/09/19 07:57:14;;;;;;;3.20;0.87;;;;;;;17.94;60.07;100819.00;5052141;28;20233;-66
2022/09/19 07:59:40;;;;;;;1.40;0.60;;;;;;;17.93;60.27;100823.06;5051875;28;20503;-66
2022/09/19 08:02:07;;;;;;;1.57;0.80;;;;;;;17.93;60.14;100823.06;5052320;28;20218;-66
2022/09/19 08:04:33;;;;;;;1.50;0.60;;;;;;;17.93;60.08;100828.75;5034601;28;20172;-66
2022/09/19 08:06:58;;;;;;;1.30;0.60;;;;;;;17.94;60.07;100830.41;5004687;28;20434;-66
2022/09/19 08:09:23;;;;;;;1.70;0.80;;;;;;;17.95;60.19;100839.81;5019891;28;20192;-66
2022/09/19 08:11:49;;;;;;;1.30;0.60;;;;;;;17.94;59.90;100847.56;5051869;28;20673;-66
2022/09/19 08:14:14;;;;;;;1.40;0.60;;;;;;;17.95;60.07;100849.22;5034071;28;20551;-66
2022/09/19 08:16:40;;;;;;;1.50;0.70;;;;;;;17.94;59.93;100847.56;5034320;28;20164;-66
2022/09/19 08:19:05;;;;;;;10.83;0.90;;;;;;;17.93;60.12;100845.91;5052324;28;20156;-66
2022/09/19 08:21:31;;;;;;;1.53;0.67;;;;;;;17.95;60.25;100856.94;5048967;28;20169;-66
2022/09/19 08:23:57;;;;;;;1.70;0.70;;;;;;;17.95;60.19;100857.78;5051728;28;20694;-66
2022/09/19 08:26:24;;;;;;;1.50;0.83;;;;;;;17.93;60.00;100854.47;5033150;28;20464;-66
2022/09/19 08:28:51;;;;;;;1.60;0.80;;;;;;;17.93;60.40;100848.75;5050223;28;20949;-66
2022/09/19 08:31:16;;;;;;;1.53;0.70;;;;;;;17.93;60.00;100854.47;5016742;28;20831;-66
2022/09/19 08:33:42;;;;;;;4.63;0.87;;;;;;;17.94;60.15;100861.84;4999953;28;20422;-66
2022/09/19 08:36:10;;;;;;;1.63;0.70;;;;;;;17.93;60.25;100853.63;5050221;28;20175;-66
2022/09/19 08:38:36;;;;;;;1.70;0.70;;;;;;;17.93;59.93;100857.34;5049941;28;20180;-66
2022/09/19 08:41:07;;;;;;;1.37;0.70;;;;;;;17.93;59.96;100854.47;5024438;28;20433;-66
2022/09/19 08:43:57;;;;;;;1.90;0.80;;;;;;;17.93;60.56;100856.50;5051504;28;20580;-66
2022/09/19 08:46:36;;;;;;;1.60;0.80;;;;;;;17.93;60.30;100845.91;5051656;28;20956;-66
2022/09/19 08:49:35;;;;;;;3.93;0.70;;;;;;;17.93;59.91;100863.03;5051518;28;21098;-66
2022/09/19 08:52:28;;;;;;;1.70;0.80;;;;;;;17.93;60.09;100865.06;5008934;28;20434;-66
2022/09/19 08:54:53;;;;;;;1.90;0.70;;;;;;;17.93;60.07;100865.06;5049516;28;20409;-66
2022/09/19 08:57:25;;;;;;;1.50;0.80;;;;;;;17.91;60.02;100859.69;5015237;28;20922;-66
2022/09/19 08:59:52;;;;;;;1.40;0.60;;;;;;;17.91;60.21;100859.69;5042304;28;20747;-66
2022/09/19 09:02:41;;;;;;;1.70;0.77;;;;;;;17.91;60.02;100864.59;5011527;28;20446;-66
2022/09/19 09:05:20;;;;;;;2.03;0.67;;;;;;;17.91;60.25;100865.41;4995391;28;20441;-66
2022/09/19 09:07:56;;;;;;;1.73;0.70;;;;;;;17.91;60.30;100862.56;4996890;28;20601;-66
2022/09/19 09:10:41;;;;;;;2.07;1.07;;;;;;;17.92;59.85;100861.38;5003711;28;20414;-66
2022/09/19 09:13:16;;;;;;;1.60;0.80;;;;;;;17.92;60.44;100863.41;5035195;28;20403;-66
2022/09/19 09:16:05;;;;;;;1.50;0.70;;;;;;;17.92;60.14;100866.25;5051154;28;20448;-66
2022/09/19 09:18:47;;;;;;;1.33;0.70;;;;;;;17.91;60.32;100862.56;5051041;28;20756;-66
2022/09/19 09:21:31;;;;;;;1.70;0.90;;;;;;;17.92;59.86;100863.41;5033352;28;20819;-66
2022/09/19 09:24:05;;;;;;;1.90;0.93;;;;;;;17.91;60.28;100858.88;5032798;28;21002;-66
2022/09/19 09:26:36;;;;;;;1.40;0.70;;;;;;;17.91;60.33;100858.88;5016549;28;20430;-66
2022/09/19 09:29:11;;;;;;;1.40;0.60;;;;;;;17.92;59.33;100854.84;5018042;28;20454;-66
2022/09/19 09:31:42;;;;;;;2.10;0.80;;;;;;;17.92;60.15;100869.13;5051327;28;20486;-66
2022/09/19 09:34:13;;;;;;;1.60;0.80;;;;;;;17.92;59.88;100860.53;5033416;28;20767;-66
2022/09/19 09:37:03;;;;;;;1.63;0.70;;;;;;;17.91;60.22;100858.88;5033276;28;20426;-66
2022/09/19 09:39:58;;;;;;;1.87;0.80;;;;;;;17.92;60.25;100854.84;5037972;28;20414;-66
2022/09/19 09:42:26;;;;;;;1.70;0.73;;;;;;;17.92;60.06;100854.84;5016277;28;20429;-66
2022/09/19 09:45:00;;;;;;;2.07;0.87;;;;;;;17.92;60.24;100846.25;5013212;28;20422;-66
2022/09/19 09:47:39;;;;;;;1.67;0.73;;;;;;;17.92;60.20;100849.97;4998314;28;20432;-66
2022/09/19 09:50:17;;;;;;;1.43;0.60;;;;;;;17.92;60.14;100852.81;5015024;28;20830;-66
2022/09/19 09:53:02;;;;;;;2.97;0.70;;;;;;;17.91;60.05;100839.69;5013605;28;20423;-66
2022/09/19 09:56:14;;;;;;;1.60;0.70;;;;;;;17.91;59.95;100845.41;4997583;28;20917;-66
2022/09/19 09:59:06;;;;;;;1.30;0.60;;;;;;;17.92;60.10;100849.13;5002732;28;20883;-66
2022/09/19 10:04:45;;;;;;;2.00;0.90;;;;;;;17.91;60.18;100841.75;5015136;28;20445;-66
2022/09/19 10:07:34;;;;;;;1.67;0.77;;;;;;;17.93;59.97;100840.19;5015063;28;20505;-66
2022/09/19 10:10:18;;;;;;;2.07;0.90;;;;;;;17.92;60.36;100834.84;4999969;28;20433;-66
2022/09/19 10:12:52;;;;;;;2.03;0.80;;;;;;;17.92;60.53;100844.25;5015958;28;20414;-66
2022/09/19 10:15:19;;;;;;;1.47;0.70;;;;;;;17.92;60.05;100829.97;5031119;28;20454;-66
2022/09/19 10:17:47;;;;;;;3.00;0.90;;;;;;;17.92;60.20;100831.97;5029928;28;20422;-66
2022/09/19 10:20:18;;;;;;;1.40;0.70;;;;;;;17.91;59.92;100831.13;5048267;28;20476;-66
2022/09/19 10:22:44;;;;;;;2.30;0.90;;;;;;;17.89;60.23;100830.69;5032999;28;20770;-66
2022/09/19 10:25:14;;;;;;;1.83;0.83;;;;;;;17.90;60.25;100829.47;5049864;28;20421;-66
2022/09/19 10:27:41;;;;;;;3.40;0.80;;;;;;;17.91;60.22;100831.13;5032508;28;20688;-66
2022/09/19 10:30:26;;;;;;;1.60;0.70;;;;;;;17.90;60.15;100822.97;5067641;28;20511;-66
2022/09/19 10:32:52;;;;;;;1.50;0.70;;;;;;;17.89;60.17;100824.13;5050574;28;20401;-66
2022/09/19 10:35:30;;;;;;;2.20;0.70;;;;;;;17.90;59.89;100826.63;5049635;28;20413;-66
2022/09/19 10:38:14;;;;;;;1.80;0.83;;;;;;;17.89;60.08;100824.97;5035201;28;20170;-66
2022/09/19 10:40:56;;;;;;;1.73;0.80;;;;;;;17.89;60.23;100816.41;5060160;28;20433;-66
2022/09/19 10:43:22;;;;;;;1.97;0.80;;;;;;;17.91;60.04;100827.47;5018974;28;20413;-66
2022/09/19 10:45:48;;;;;;;1.73;0.70;;;;;;;17.90;60.15;100822.97;5047948;28;20425;-66
2022/09/19 10:48:18;;;;;;;1.60;0.73;;;;;;;17.91;60.11;100818.91;5047921;28;20453;-66
2022/09/19 10:50:45;;;;;;;1.80;0.80;;;;;;;17.90;60.16;100820.91;5048128;28;20156;-66
2022/09/19 10:53:16;;;;;;;1.40;0.70;;;;;;;17.91;60.20;100822.56;5048385;28;20435;-66
2022/09/19 10:55:42;;;;;;;1.70;0.80;;;;;;;17.91;60.29;100818.91;5031819;28;20564;-66
2022/09/19 10:58:16;;;;;;;2.90;1.00;;;;;;;17.90;60.34;100823.78;5034889;28;20418;-66
2022/09/19 11:00:55;;;;;;;1.90;0.90;;;;;;;17.89;60.08;100822.09;5023279;28;20192;-66
2022/09/19 11:03:26;;;;;;;2.73;0.70;;;;;;;17.89;60.00;100816.41;5011773;28;20430;-66
2022/09/19 11:06:12;;;;;;;2.10;1.20;;;;;;;17.90;60.34;100825.81;5028758;28;20427;-66
2022/09/19 11:08:49;;;;;;;4.40;0.83;;;;;;;17.89;60.03;100827.81;5029119;28;20458;-66
2022/09/19 11:11:32;;;;;;;2.77;0.80;;;;;;;17.89;60.36;100827.81;5025258;28;20464;-66
2022/09/19 11:14:07;;;;;;;2.17;0.80;;;;;;;17.90;60.01;100832.34;5049223;28;20394;-66
2022/09/19 11:17:00;;;;;;;1.77;0.80;;;;;;;17.89;60.30;100826.97;5031106;28;20418;-66
2022/09/19 11:19:35;;;;;;;2.33;0.90;;;;;;;17.89;60.16;100832.69;5016754;28;20969;-66
2022/09/19 11:22:19;;;;;;;2.03;0.80;;;;;;;17.88;60.47;100837.59;5048816;28;20528;-66
2022/09/19 11:25:00;;;;;;;5.37;1.27;;;;;;;17.88;60.44;100829.03;5030874;28;20627;-66
2022/09/19 11:28:13;;;;;;;7.07;2.40;;;;;;;17.88;60.26;100829.03;5031184;28;20398;-66
2022/09/19 11:30:49;;;;;;;2.07;0.97;;;;;;;17.88;60.20;100828.19;4967523;28;20488;-66
2022/09/19 11:33:34;;;;;;;2.27;0.90;;;;;;;17.87;60.52;100833.09;5005840;28;20425;-66
2022/09/19 11:36:13;;;;;;;8.20;1.83;;;;;;;17.88;60.36;100829.03;5030701;28;20426;-66
2022/09/19 11:39:03;;;;;;;2.27;0.87;;;;;;;17.88;60.29;100831.88;5028987;28;20520;-66
2022/09/19 11:41:51;;;;;;;2.17;0.73;;;;;;;17.88;60.28;100823.31;5048475;28;20872;-66
2022/09/19 11:44:25;;;;;;;1.40;0.67;;;;;;;17.89;60.46;100822.09;5003491;28;20498;-66
2022/09/19 11:47:06;;;;;;;3.20;1.00;;;;;;;17.88;60.28;100823.31;5033751;28;20422;-66
2022/09/19 11:49:56;;;;;;;3.60;1.17;;;;;;;17.87;60.32;100823.66;5052061;28;20461;-66
2022/09/19 11:52:25;;;;;;;4.43;1.00;;;;;;;17.86;60.87;100819.97;5033934;28;20488;-66
2022/09/19 11:55:02;;;;;;;10.20;1.60;;;;;;;17.87;60.58;100817.97;5051791;28;20410;-66